Time;durP1;ratioP1;P1;durP2;ratioP2;P2;SDS_P1;SDS_P2;PMS_P1;PMS_P2;Temp;Humidity;BMP_temperature;BMP_pressure;BME280_temperature;BME280_humidity;BME280_pressure;Samples;Min_cycle;Max_cycle;Signal;HPM_P1;HPM_P2
2022/08/07 00:01:21;;;;;;;3.33;2.07;;;;;;;;;;5055855;28;20515;-82
2022/08/07 00:03:47;;;;;;;4.50;1.33;;;;;;;;;;5056126;28;20454;-77
2022/08/07 00:06:13;;;;;;;2.73;1.67;;;;;;;;;;5056056;28;20417;-75
2022/08/07 00:08:39;;;;;;;3.83;1.80;;;;;;;;;;5054718;28;20417;-78
2022/08/07 00:11:05;;;;;;;4.13;2.37;;;;;;;;;;5054215;28;20444;-77
2022/08/07 00:13:32;;;;;;;2.23;1.43;;;;;;;;;;5055812;28;20417;-82
2022/08/07 00:15:58;;;;;;;3.50;2.17;;;;;;;;;;5055908;28;20387;-77
2022/08/07 00:18:25;;;;;;;2.50;1.50;;;;;;;;;;5055766;28;20408;-80
2022/08/07 00:20:53;;;;;;;3.50;2.10;;;;;;;;;;5055210;28;20404;-80
2022/08/07 00:23:19;;;;;;;1.67;1.37;;;;;;;;;;5055579;28;20442;-79
2022/08/07 00:25:45;;;;;;;2.67;1.50;;;;;;;;;;5055602;28;20420;-81
2022/08/07 00:28:11;;;;;;;10.73;2.00;;;;;;;;;;5055604;28;20429;-77
2022/08/07 00:30:37;;;;;;;3.00;2.07;;;;;;;;;;5053848;28;20527;-79
2022/08/07 00:33:03;;;;;;;3.40;2.10;;;;;;;;;;5055486;28;20478;-81
2022/08/07 00:35:29;;;;;;;2.40;2.00;;;;;;;;;;5055287;28;20482;-79
2022/08/07 00:37:55;;;;;;;2.23;1.70;;;;;;;;;;5055280;28;20910;-77
2022/08/07 00:40:21;;;;;;;4.93;2.00;;;;;;;;;;5054948;28;20444;-82
2022/08/07 00:42:47;;;;;;;3.90;1.93;;;;;;;;;;5055335;28;20610;-80
2022/08/07 00:45:13;;;;;;;6.97;2.43;;;;;;;;;;5055206;28;20387;-79
2022/08/07 00:47:39;;;;;;;7.60;1.93;;;;;;;;;;5055073;28;20447;-80
2022/08/07 00:50:06;;;;;;;1.87;1.60;;;;;;;;;;5055065;28;20432;-78
2022/08/07 00:52:32;;;;;;;2.93;1.80;;;;;;;;;;5055232;28;20771;-78
2022/08/07 00:54:58;;;;;;;4.37;1.93;;;;;;;;;;5055239;28;20872;-82
2022/08/07 00:57:25;;;;;;;5.23;1.93;;;;;;;;;;5055116;28;20426;-79
2022/08/07 00:59:51;;;;;;;3.30;2.27;;;;;;;;;;5053445;28;20924;-78
2022/08/07 01:02:18;;;;;;;2.70;2.10;;;;;;;;;;5055061;28;20452;-77
2022/08/07 01:04:44;;;;;;;3.10;2.03;;;;;;;;;;5055011;28;20397;-79
2022/08/07 01:07:11;;;;;;;2.80;1.93;;;;;;;;;;5055146;28;20551;-76
2022/08/07 01:09:37;;;;;;;3.40;2.00;;;;;;;;;;5054584;28;20409;-82
2022/08/07 01:12:04;;;;;;;6.40;2.83;;;;;;;;;;5055043;28;20939;-80
2022/08/07 01:14:30;;;;;;;3.07;2.37;;;;;;;;;;5054879;28;20454;-79
2022/08/07 01:16:56;;;;;;;4.57;2.67;;;;;;;;;;5054703;28;20882;-79
2022/08/07 01:19:24;;;;;;;2.10;1.90;;;;;;;;;;5054639;28;20497;-77
2022/08/07 01:21:51;;;;;;;4.00;2.20;;;;;;;;;;5053896;28;20858;-79
2022/08/07 01:24:18;;;;;;;4.63;2.00;;;;;;;;;;5054658;28;20425;-82
2022/08/07 01:26:44;;;;;;;4.03;2.43;;;;;;;;;;5054678;28;20728;-78
2022/08/07 01:29:10;;;;;;;6.47;2.20;;;;;;;;;;5054468;28;20821;-80
2022/08/07 01:31:37;;;;;;;5.90;2.23;;;;;;;;;;5053889;28;20814;-81
2022/08/07 01:34:04;;;;;;;3.50;2.57;;;;;;;;;;5054345;28;20495;-75
2022/08/07 01:36:30;;;;;;;4.70;1.80;;;;;;;;;;5054226;28;20419;-78
2022/08/07 01:38:56;;;;;;;3.07;1.80;;;;;;;;;;5054289;28;20982;-77
2022/08/07 01:41:23;;;;;;;1.93;1.77;;;;;;;;;;5053827;28;20953;-80
2022/08/07 01:43:49;;;;;;;5.10;2.30;;;;;;;;;;5053866;28;20456;-81
2022/08/07 01:46:15;;;;;;;4.83;2.50;;;;;;;;;;5054128;28;20420;-80
2022/08/07 01:48:45;;;;;;;2.50;2.00;;;;;;;;;;5054159;28;20539;-80
2022/08/07 01:51:21;;;;;;;2.40;2.20;;;;;;;;;;5053782;28;20435;-78
2022/08/07 01:53:50;;;;;;;2.27;2.00;;;;;;;;;;5053943;28;20395;-77
2022/08/07 01:56:17;;;;;;;4.93;2.20;;;;;;;;;;5053986;28;20392;-78
2022/08/07 01:58:48;;;;;;;3.80;2.57;;;;;;;;;;5053809;28;20411;-80
2022/08/07 02:01:19;;;;;;;4.90;2.10;;;;;;;;;;5053503;28;20487;-78
2022/08/07 02:03:49;;;;;;;3.80;2.10;;;;;;;;;;5053762;28;20525;-79
2022/08/07 02:06:16;;;;;;;3.50;1.97;;;;;;;;;;5053790;28;20391;-82
2022/08/07 02:08:43;;;;;;;2.50;2.10;;;;;;;;;;5054034;28;20378;-80
2022/08/07 02:11:10;;;;;;;4.33;2.00;;;;;;;;;;5053111;28;20444;-81
2022/08/07 02:13:37;;;;;;;13.13;2.20;;;;;;;;;;5053679;28;20420;-82
2022/08/07 02:16:04;;;;;;;2.37;2.03;;;;;;;;;;5053659;28;20465;-78
2022/08/07 02:18:31;;;;;;;3.90;2.10;;;;;;;;;;5053767;28;20442;-81
2022/08/07 02:20:58;;;;;;;1.93;1.73;;;;;;;;;;5053138;28;20432;-80
2022/08/07 02:23:24;;;;;;;4.50;2.70;;;;;;;;;;5053458;28;20459;-80
2022/08/07 02:25:52;;;;;;;2.63;2.03;;;;;;;;;;5053270;28;20429;-80
2022/08/07 02:28:19;;;;;;;3.73;2.70;;;;;;;;;;5053403;28;20389;-81
2022/08/07 02:30:46;;;;;;;3.50;2.40;;;;;;;;;;5053048;28;20966;-78
2022/08/07 02:33:13;;;;;;;6.20;1.93;;;;;;;;;;5053213;28;20500;-76
2022/08/07 02:35:40;;;;;;;3.40;2.37;;;;;;;;;;5052721;28;20934;-80
2022/08/07 02:38:07;;;;;;;3.30;2.40;;;;;;;;;;5053170;28;20919;-80
2022/08/07 02:40:33;;;;;;;2.07;1.87;;;;;;;;;;5052972;28;20450;-79
2022/08/07 02:43:01;;;;;;;2.43;2.10;;;;;;;;;;5053305;28;20457;-79
2022/08/07 02:45:28;;;;;;;2.80;2.40;;;;;;;;;;5053241;28;20422;-80
2022/08/07 02:47:54;;;;;;;4.17;2.17;;;;;;;;;;5053154;28;20459;-76
2022/08/07 02:50:20;;;;;;;2.00;1.67;;;;;;;;;;5052890;28;20468;-80
2022/08/07 02:52:47;;;;;;;3.80;2.23;;;;;;;;;;5052037;28;20416;-79
2022/08/07 02:55:17;;;;;;;2.27;2.07;;;;;;;;;;5053040;28;20403;-79
2022/08/07 02:57:44;;;;;;;4.03;2.60;;;;;;;;;;5053247;28;20439;-78
2022/08/07 03:00:10;;;;;;;3.73;2.13;;;;;;;;;;5052522;28;20975;-81
2022/08/07 03:02:37;;;;;;;2.93;2.37;;;;;;;;;;5053071;28;20505;-81
2022/08/07 03:05:03;;;;;;;2.80;2.20;;;;;;;;;;5053144;28;20422;-82
2022/08/07 03:07:30;;;;;;;5.77;2.50;;;;;;;;;;5053102;28;20429;-78
2022/08/07 03:09:56;;;;;;;4.60;2.30;;;;;;;;;;5052490;28;20515;-79
2022/08/07 03:12:22;;;;;;;3.27;2.60;;;;;;;;;;5052795;28;20431;-78
2022/08/07 03:14:49;;;;;;;4.13;2.20;;;;;;;;;;5052869;28;20527;-77
2022/08/07 03:17:16;;;;;;;2.80;2.27;;;;;;;;;;5052999;28;20841;-78
2022/08/07 03:19:42;;;;;;;5.83;2.50;;;;;;;;;;5052431;28;20899;-78
2022/08/07 03:22:08;;;;;;;4.30;2.10;;;;;;;;;;5052719;28;20410;-82
2022/08/07 03:24:34;;;;;;;3.00;2.30;;;;;;;;;;5052844;28;20785;-80
2022/08/07 03:27:01;;;;;;;2.70;2.43;;;;;;;;;;5052907;28;20383;-77
2022/08/07 03:29:38;;;;;;;5.87;2.20;;;;;;;;;;5052785;28;20443;-75
2022/08/07 03:32:06;;;;;;;3.50;2.20;;;;;;;;;;5052774;28;20887;-77
2022/08/07 03:34:33;;;;;;;3.97;2.60;;;;;;;;;;5052414;28;20413;-78
2022/08/07 03:37:02;;;;;;;4.00;2.40;;;;;;;;;;5052616;28;20906;-79
2022/08/07 03:39:29;;;;;;;3.43;2.20;;;;;;;;;;5052635;28;20791;-80
2022/08/07 03:41:55;;;;;;;4.00;2.90;;;;;;;;;;5052391;28;20911;-78
2022/08/07 03:44:21;;;;;;;3.30;2.50;;;;;;;;;;5052693;28;20405;-80
2022/08/07 03:46:47;;;;;;;2.77;2.23;;;;;;;;;;5055971;28;20783;-82
2022/08/07 03:49:13;;;;;;;4.67;2.90;;;;;;;;;;5056393;28;20400;-76
2022/08/07 03:51:40;;;;;;;4.00;2.43;;;;;;;;;;5055974;28;20433;-79
2022/08/07 03:54:06;;;;;;;4.17;2.63;;;;;;;;;;5056352;28;20927;-79
2022/08/07 03:56:32;;;;;;;4.83;2.30;;;;;;;;;;5056059;28;20499;-77
2022/08/07 03:58:59;;;;;;;4.63;2.40;;;;;;;;;;5056176;28;20469;-82
2022/08/07 04:01:26;;;;;;;4.33;2.60;;;;;;;;;;5055688;28;20429;-78
2022/08/07 04:03:52;;;;;;;5.50;2.30;;;;;;;;;;5056003;28;20468;-80
2022/08/07 04:06:18;;;;;;;7.60;2.63;;;;;;;;;;5056010;28;20389;-79
2022/08/07 04:08:44;;;;;;;3.87;2.60;;;;;;;;;;5055977;28;20412;-81
2022/08/07 04:11:10;;;;;;;6.37;2.50;;;;;;;;;;5055486;28;20508;-77
2022/08/07 04:13:37;;;;;;;4.13;2.70;;;;;;;;;;5055996;28;20459;-80
2022/08/07 04:16:03;;;;;;;2.70;2.50;;;;;;;;;;5055864;28;20417;-76
2022/08/07 04:18:29;;;;;;;3.60;2.70;;;;;;;;;;5055992;28;20409;-80
2022/08/07 04:20:55;;;;;;;3.57;2.43;;;;;;;;;;5055339;28;20436;-79
2022/08/07 04:23:22;;;;;;;5.70;2.83;;;;;;;;;;5055762;28;20478;-76
2022/08/07 04:25:48;;;;;;;5.60;2.67;;;;;;;;;;5055840;28;20423;-78
2022/08/07 04:28:14;;;;;;;3.90;2.33;;;;;;;;;;5055759;28;20419;-80
2022/08/07 04:30:40;;;;;;;4.60;2.60;;;;;;;;;;5055186;28;20194;-81
2022/08/07 04:33:08;;;;;;;4.17;2.53;;;;;;;;;;5055460;28;20484;-79
2022/08/07 04:35:35;;;;;;;3.33;2.38;;;;;;;;;;5055544;28;20466;-78
2022/08/07 04:38:04;;;;;;;5.80;3.27;;;;;;;;;;5055446;28;20264;-77
2022/08/07 04:40:30;;;;;;;3.37;2.57;;;;;;;;;;5054962;28;20523;-77
2022/08/07 04:42:56;;;;;;;4.77;2.90;;;;;;;;;;5055085;28;20486;-80
2022/08/07 04:45:25;;;;;;;2.92;2.28;;;;;;;;;;5055282;28;20877;-81
2022/08/07 04:47:55;;;;;;;3.78;3.45;;;;;;;;;;5055226;28;20174;-81
2022/08/07 04:50:37;;;;;;;3.60;2.23;;;;;;;;;;5054808;28;20712;-79
2022/08/07 04:53:08;;;;;;;4.65;2.20;;;;;;;;;;5055109;28;20908;-77
2022/08/07 04:55:40;;;;;;;5.33;2.50;;;;;;;;;;5055156;28;20264;-77
2022/08/07 04:58:14;;;;;;;3.30;3.00;;;;;;;;;;5053518;28;20416;-78
2022/08/07 05:00:44;;;;;;;3.80;2.57;;;;;;;;;;5053527;28;20830;-78
2022/08/07 05:03:16;;;;;;;3.47;2.70;;;;;;;;;;5055055;28;20458;-80
2022/08/07 05:05:49;;;;;;;2.90;2.60;;;;;;;;;;5055017;28;20410;-78
2022/08/07 05:08:23;;;;;;;5.03;2.92;;;;;;;;;;5054964;28;20253;-77
2022/08/07 05:10:58;;;;;;;4.47;2.75;;;;;;;;;;5054378;28;20206;-78
2022/08/07 05:13:27;;;;;;;3.33;2.90;;;;;;;;;;5054770;28;20170;-78
2022/08/07 05:15:54;;;;;;;3.43;2.70;;;;;;;;;;5054773;28;20446;-80
2022/08/07 05:18:26;;;;;;;4.05;3.03;;;;;;;;;;5054736;28;20422;-79
2022/08/07 05:20:54;;;;;;;3.90;2.80;;;;;;;;;;5054161;28;20197;-79
2022/08/07 05:23:22;;;;;;;3.07;2.80;;;;;;;;;;5053065;28;21007;-80
2022/08/07 05:25:49;;;;;;;5.77;3.17;;;;;;;;;;5054446;28;20986;-79
2022/08/07 05:28:15;;;;;;;3.87;2.97;;;;;;;;;;5054519;28;20775;-79
2022/08/07 05:30:42;;;;;;;3.33;3.03;;;;;;;;;;5054168;28;20433;-78
2022/08/07 05:33:09;;;;;;;3.50;2.97;;;;;;;;;;5054497;28;20421;-78
2022/08/07 05:35:37;;;;;;;4.03;2.63;;;;;;;;;;5054161;28;20420;-80
2022/08/07 05:38:05;;;;;;;4.30;3.40;;;;;;;;;;5054208;28;20770;-78
2022/08/07 05:40:32;;;;;;;3.83;2.90;;;;;;;;;;5053832;28;20443;-78
2022/08/07 05:42:58;;;;;;;6.10;3.63;;;;;;;;;;5054166;28;20863;-79
2022/08/07 05:45:24;;;;;;;8.00;4.40;;;;;;;;;;5054036;28;20418;-78
2022/08/07 05:47:52;;;;;;;5.97;3.83;;;;;;;;;;5054135;28;20450;-78
2022/08/07 05:50:18;;;;;;;4.07;3.67;;;;;;;;;;5053865;28;20799;-78
2022/08/07 05:52:44;;;;;;;3.50;3.20;;;;;;;;;;5053967;28;20465;-78
2022/08/07 05:55:10;;;;;;;3.80;3.17;;;;;;;;;;5054096;28;20442;-78
2022/08/07 05:57:36;;;;;;;6.03;3.50;;;;;;;;;;5053897;28;20790;-79
2022/08/07 06:00:03;;;;;;;3.97;3.60;;;;;;;;;;5053416;28;20437;-77
2022/08/07 06:02:31;;;;;;;7.20;3.53;;;;;;;;;;5053689;28;20553;-78
2022/08/07 06:04:59;;;;;;;4.70;4.20;;;;;;;;;;5053865;28;20414;-78
2022/08/07 06:07:25;;;;;;;4.00;3.40;;;;;;;;;;5053798;28;20413;-77
2022/08/07 06:09:51;;;;;;;4.20;3.80;;;;;;;;;;5052164;28;20412;-79
2022/08/07 06:12:18;;;;;;;6.20;3.70;;;;;;;;;;5053710;28;20555;-76
2022/08/07 06:14:43;;;;;;;4.10;3.70;;;;;;;;;;5053589;28;20421;-77
2022/08/07 06:17:12;;;;;;;5.63;3.27;;;;;;;;;;5053659;28;20417;-78
2022/08/07 06:19:39;;;;;;;5.53;4.00;;;;;;;;;;5053240;28;20413;-76
2022/08/07 06:22:05;;;;;;;4.17;3.60;;;;;;;;;;5053537;28;20385;-79
2022/08/07 06:24:31;;;;;;;5.20;3.83;;;;;;;;;;5053562;28;20437;-78
2022/08/07 06:26:57;;;;;;;6.40;3.97;;;;;;;;;;5053439;28;20405;-78
2022/08/07 06:29:29;;;;;;;5.00;3.30;;;;;;;;;;5053454;28;20403;-77
2022/08/07 06:31:55;;;;;;;7.67;3.57;;;;;;;;;;5053286;28;20432;-76
2022/08/07 06:34:27;;;;;;;3.80;3.40;;;;;;;;;;5053456;28;20387;-77
2022/08/07 06:36:53;;;;;;;9.10;3.83;;;;;;;;;;5053248;28;20419;-80
2022/08/07 06:39:20;;;;;;;4.83;3.10;;;;;;;;;;5053141;28;20881;-79
2022/08/07 06:41:56;;;;;;;5.53;3.80;;;;;;;;;;5052715;28;20436;-76
2022/08/07 06:44:22;;;;;;;7.23;3.73;;;;;;;;;;5053007;28;20564;-79
2022/08/07 06:46:48;;;;;;;4.37;2.80;;;;;;;;;;5053034;28;20423;-79
2022/08/07 06:49:14;;;;;;;6.83;3.30;;;;;;;;;;5053028;28;20475;-78
2022/08/07 06:51:43;;;;;;;3.90;3.50;;;;;;;;;;5052738;28;20399;-80
2022/08/07 06:54:09;;;;;;;4.33;3.50;;;;;;;;;;5052899;28;20383;-76
2022/08/07 06:56:38;;;;;;;5.13;3.13;;;;;;;;;;5053038;28;20504;-80
2022/08/07 06:59:09;;;;;;;13.10;3.17;;;;;;;;;;5052986;28;20474;-79
2022/08/07 07:01:36;;;;;;;3.40;2.77;;;;;;;;;;5052635;28;20404;-76
2022/08/07 07:04:03;;;;;;;6.40;3.07;;;;;;;;;;5052787;28;20464;-78
2022/08/07 07:06:30;;;;;;;3.90;2.70;;;;;;;;;;5052970;28;20804;-79
2022/08/07 07:08:56;;;;;;;7.87;4.57;;;;;;;;;;5052885;28;20410;-79
2022/08/07 07:11:22;;;;;;;5.50;2.80;;;;;;;;;;5052421;28;20445;-79
2022/08/07 07:13:50;;;;;;;4.67;2.57;;;;;;;;;;5052903;28;20395;-78
2022/08/07 07:16:21;;;;;;;5.17;3.00;;;;;;;;;;5052704;28;20447;-76
2022/08/07 07:18:54;;;;;;;2.83;2.20;;;;;;;;;;5052791;28;20387;-80
2022/08/07 07:21:21;;;;;;;6.17;2.67;;;;;;;;;;5055183;28;20399;-79
2022/08/07 07:23:48;;;;;;;7.70;2.50;;;;;;;;;;5056656;28;20418;-76
2022/08/07 07:26:15;;;;;;;3.60;2.57;;;;;;;;;;5056266;28;20413;-77
2022/08/07 07:28:47;;;;;;;2.17;1.97;;;;;;;;;;5056577;28;20488;-78
2022/08/07 07:31:18;;;;;;;6.73;2.10;;;;;;;;;;5056319;28;20425;-81
2022/08/07 07:33:45;;;;;;;5.50;2.10;;;;;;;;;;5056661;28;20495;-78
2022/08/07 07:36:12;;;;;;;4.97;2.83;;;;;;;;;;5056338;28;20398;-76
2022/08/07 07:38:38;;;;;;;3.77;2.30;;;;;;;;;;5056391;28;20569;-76
2022/08/07 07:41:07;;;;;;;3.00;2.10;;;;;;;;;;5055897;28;20406;-80
2022/08/07 07:43:33;;;;;;;5.77;2.03;;;;;;;;;;5056499;28;20462;-76
2022/08/07 07:46:00;;;;;;;2.63;1.70;;;;;;;;;;5056330;28;20452;-78
2022/08/07 07:48:28;;;;;;;5.60;2.10;;;;;;;;;;5056076;28;20840;-78
2022/08/07 07:50:55;;;;;;;3.57;1.80;;;;;;;;;;5055885;28;20425;-76
2022/08/07 07:53:21;;;;;;;3.90;1.97;;;;;;;;;;5056156;28;20761;-79
2022/08/07 07:55:48;;;;;;;3.33;1.80;;;;;;;;;;5056464;28;20937;-77
2022/08/07 07:58:14;;;;;;;1.83;1.40;;;;;;;;;;5056104;28;20412;-75
2022/08/07 08:00:42;;;;;;;2.63;1.60;;;;;;;;;;5055725;28;20534;-75
2022/08/07 08:03:12;;;;;;;2.00;1.37;;;;;;;;;;5056063;28;20602;-75
2022/08/07 08:05:40;;;;;;;4.87;1.73;;;;;;;;;;5056166;28;20419;-77
2022/08/07 08:08:08;;;;;;;2.97;1.30;;;;;;;;;;5056175;28;20558;-75
2022/08/07 08:10:34;;;;;;;3.87;1.50;;;;;;;;;;5055307;28;20423;-76
2022/08/07 08:13:00;;;;;;;2.90;1.50;;;;;;;;;;5055822;28;20784;-75
2022/08/07 08:15:33;;;;;;;2.40;1.37;;;;;;;;;;5055959;28;20422;-76
2022/08/07 08:18:00;;;;;;;5.10;1.57;;;;;;;;;;5055900;28;20408;-75
2022/08/07 08:20:29;;;;;;;2.23;1.27;;;;;;;;;;5055344;28;20429;-75
2022/08/07 08:28:28;;;;;;;2.87;1.20;;;;;;;;;;5056049;28;20408;-75
2022/08/07 08:30:58;;;;;;;1.53;1.30;;;;;;;;;;5055241;28;20491;-75
2022/08/07 08:33:24;;;;;;;2.60;1.27;;;;;;;;;;5054776;28;20925;-75
2022/08/07 08:35:51;;;;;;;1.63;1.10;;;;;;;;;;5055711;28;20416;-80
2022/08/07 08:38:18;;;;;;;2.37;1.10;;;;;;;;;;5055576;28;20413;-80
2022/08/07 08:40:46;;;;;;;2.67;1.00;;;;;;;;;;5058437;28;20519;-78
2022/08/07 08:43:31;;;;;;;3.70;1.40;;;;;;;;;;5066554;28;20473;-78
2022/08/07 08:46:09;;;;;;;1.20;1.00;;;;;;;;;;5075424;28;20415;-80
2022/08/07 08:48:39;;;;;;;1.27;1.00;;;;;;;;;;5075335;28;20793;-80
2022/08/07 08:51:19;;;;;;;2.77;1.17;;;;;;;;;;5074616;28;20780;-80
2022/08/07 08:54:03;;;;;;;2.37;1.50;;;;;;;;;;5075121;28;20453;-79
2022/08/07 08:56:32;;;;;;;2.50;1.20;;;;;;;;;;5075192;28;20764;-81
2022/08/07 08:58:58;;;;;;;1.43;1.20;;;;;;;;;;5074744;28;20770;-78
2022/08/07 09:01:28;;;;;;;1.63;1.50;;;;;;;;;;5074593;28;20431;-80
2022/08/07 09:04:08;;;;;;;2.40;0.90;;;;;;;;;;5074939;28;20554;-78
2022/08/07 09:06:40;;;;;;;2.80;0.90;;;;;;;;;;5074989;28;20780;-79
2022/08/07 09:09:18;;;;;;;2.00;0.90;;;;;;;;;;5074693;28;20402;-78
2022/08/07 09:12:00;;;;;;;2.03;0.83;;;;;;;;;;5074383;28;20447;-79
2022/08/07 09:14:32;;;;;;;3.53;0.93;;;;;;;;;;5074966;28;20408;-81
2022/08/07 09:17:10;;;;;;;1.30;1.10;;;;;;;;;;5074485;28;20408;-81
2022/08/07 09:19:56;;;;;;;3.80;1.23;;;;;;;;;;5073149;28;20451;-79
2022/08/07 09:22:22;;;;;;;2.17;1.00;;;;;;;;;;5074510;28;20410;-81
2022/08/07 09:24:48;;;;;;;2.07;1.00;;;;;;;;;;5074531;28;20404;-76
2022/08/07 09:27:31;;;;;;;0.80;0.60;;;;;;;;;;5074402;28;20403;-76
2022/08/07 09:30:00;;;;;;;0.90;0.67;;;;;;;;;;5074042;28;20521;-79
2022/08/07 09:32:36;;;;;;;0.83;0.67;;;;;;;;;;5074382;28;20409;-78
2022/08/07 09:35:17;;;;;;;1.50;1.00;;;;;;;;;;5074196;28;20399;-79
2022/08/07 09:37:44;;;;;;;1.00;0.63;;;;;;;;;;5073012;28;20411;-79
2022/08/07 09:40:16;;;;;;;0.80;0.53;;;;;;;;;;5073790;28;20434;-79
2022/08/07 09:42:45;;;;;;;2.30;1.13;;;;;;;;;;5073946;28;20455;-79
2022/08/07 09:45:18;;;;;;;1.83;0.70;;;;;;;;;;5074014;28;20488;-79
2022/08/07 09:47:44;;;;;;;1.00;0.73;;;;;;;;;;5074110;28;20518;-79
2022/08/07 09:50:16;;;;;;;1.43;0.70;;;;;;;;;;5073663;28;20924;-83
2022/08/07 09:52:58;;;;;;;0.90;0.60;;;;;;;;;;5073993;28;20799;-80
2022/08/07 09:55:33;;;;;;;0.80;0.60;;;;;;;;;;5074120;28;20400;-78
2022/08/07 09:58:18;;;;;;;1.10;0.60;;;;;;;;;;5073869;28;20406;-79
2022/08/07 10:00:46;;;;;;;0.90;0.60;;;;;;;;;;5073817;28;20418;-78
2022/08/07 10:03:13;;;;;;;1.47;0.83;;;;;;;;;;5072484;28;20463;-78
2022/08/07 10:05:42;;;;;;;2.87;0.80;;;;;;;;;;5073718;28;20407;-79
2022/08/07 10:08:20;;;;;;;0.80;0.70;;;;;;;;;;5074024;28;20467;-80
2022/08/07 10:10:58;;;;;;;1.73;0.70;;;;;;;;;;5073491;28;20788;-81
2022/08/07 10:13:26;;;;;;;1.93;0.67;;;;;;;;;;5073515;28;20442;-80
2022/08/07 10:16:11;;;;;;;1.90;0.70;;;;;;;;;;5072187;28;20460;-77
2022/08/07 10:18:43;;;;;;;4.00;0.80;;;;;;;;;;5072140;28;20423;-78
2022/08/07 10:21:28;;;;;;;2.93;1.00;;;;;;;;;;5073276;28;20432;-80
2022/08/07 10:24:00;;;;;;;3.80;0.73;;;;;;;;;;5072312;28;20830;-79
2022/08/07 10:26:29;;;;;;;1.40;0.70;;;;;;;;;;5073471;28;20478;-78
2022/08/07 10:29:16;;;;;;;2.80;0.90;;;;;;;;;;5073577;28;20810;-78
2022/08/07 10:31:53;;;;;;;1.60;0.80;;;;;;;;;;5071773;28;20915;-79
2022/08/07 10:34:31;;;;;;;1.30;0.60;;;;;;;;;;5073666;28;20418;-79
2022/08/07 10:37:20;;;;;;;2.20;0.83;;;;;;;;;;5072125;28;20423;-78
2022/08/07 10:40:01;;;;;;;1.20;0.80;;;;;;;;;;5035603;28;20423;-79
2022/08/07 10:42:32;;;;;;;1.93;0.80;;;;;;;;;;5073290;28;20458;-77
2022/08/07 10:45:06;;;;;;;1.63;0.70;;;;;;;;;;5073490;28;20765;-76
2022/08/07 10:47:38;;;;;;;1.70;0.70;;;;;;;;;;5073052;28;20411;-77
2022/08/07 10:50:20;;;;;;;1.50;0.87;;;;;;;;;;5072976;28;20980;-76
2022/08/07 10:52:51;;;;;;;3.77;1.40;;;;;;;;;;5073118;28;20411;-76
2022/08/07 10:55:19;;;;;;;2.70;1.20;;;;;;;;;;5071616;28;20939;-77
2022/08/07 10:58:06;;;;;;;2.07;0.70;;;;;;;;;;5073080;28;20412;-78
2022/08/07 11:00:36;;;;;;;1.13;0.90;;;;;;;;;;5032173;28;20448;-76
2022/08/07 11:03:16;;;;;;;1.83;0.70;;;;;;;;;;5073241;28;20451;-77
2022/08/07 11:05:42;;;;;;;1.20;0.90;;;;;;;;;;5073044;28;20445;-78
2022/08/07 11:08:11;;;;;;;1.00;0.77;;;;;;;;;;5073149;28;20443;-77
2022/08/07 11:10:43;;;;;;;0.90;0.70;;;;;;;;;;5072425;28;20451;-77
2022/08/07 11:13:23;;;;;;;1.17;0.80;;;;;;;;;;5072884;28;20408;-77
2022/08/07 11:15:51;;;;;;;1.13;0.77;;;;;;;;;;5073149;28;20407;-77
2022/08/07 11:18:26;;;;;;;1.67;0.80;;;;;;;;;;5072966;28;20889;-76
2022/08/07 11:21:02;;;;;;;2.37;0.80;;;;;;;;;;5072498;28;20454;-77
2022/08/07 11:23:37;;;;;;;1.73;0.70;;;;;;;;;;5071470;28;20981;-77
2022/08/07 11:26:27;;;;;;;2.10;0.80;;;;;;;;;;5072745;28;20489;-79
2022/08/07 11:28:58;;;;;;;1.07;0.70;;;;;;;;;;5026095;28;20420;-79
2022/08/07 11:31:36;;;;;;;1.47;1.00;;;;;;;;;;5072427;28;20424;-78
2022/08/07 11:34:12;;;;;;;0.90;0.70;;;;;;;;;;5072489;28;20408;-77
2022/08/07 11:36:58;;;;;;;2.00;0.70;;;;;;;;;;5072595;28;20411;-77
2022/08/07 11:39:48;;;;;;;0.70;0.60;;;;;;;;;;5031886;28;20415;-77
2022/08/07 11:42:23;;;;;;;1.30;0.77;;;;;;;;;;5072548;28;20420;-76
2022/08/07 11:44:54;;;;;;;0.80;0.70;;;;;;;;;;5071311;28;20921;-77
2022/08/07 11:47:41;;;;;;;1.20;0.77;;;;;;;;;;5072586;28;20404;-77
2022/08/07 11:50:16;;;;;;;0.97;0.60;;;;;;;;;;5071908;28;20420;-77
2022/08/07 11:52:51;;;;;;;1.27;0.70;;;;;;;;;;5072641;28;20470;-75
2022/08/07 11:55:28;;;;;;;0.93;0.70;;;;;;;;;;5072589;28;20407;-76
2022/08/07 11:58:12;;;;;;;1.73;0.93;;;;;;;;;;5072512;28;20415;-76
2022/08/07 12:00:57;;;;;;;1.00;0.80;;;;;;;;;;5072005;28;20461;-76
2022/08/07 12:03:29;;;;;;;2.40;0.80;;;;;;;;;;5072695;28;20879;-76
2022/08/07 12:06:01;;;;;;;1.67;0.80;;;;;;;;;;5072782;28;20403;-76
2022/08/07 12:08:34;;;;;;;1.00;0.77;;;;;;;;;;5075406;28;20383;-76
2022/08/07 12:11:05;;;;;;;1.27;0.70;;;;;;;;;;5075365;28;20435;-76
2022/08/07 12:13:34;;;;;;;1.10;0.60;;;;;;;;;;5076012;28;20408;-76
2022/08/07 12:16:05;;;;;;;0.70;0.57;;;;;;;;;;5075981;28;20464;-77
2022/08/07 12:18:34;;;;;;;1.13;0.70;;;;;;;;;;5075709;28;20412;-77
2022/08/07 12:21:16;;;;;;;1.90;0.70;;;;;;;;;;5075477;28;20939;-77
2022/08/07 12:23:45;;;;;;;1.23;0.80;;;;;;;;;;5075732;28;20447;-76
2022/08/07 12:26:32;;;;;;;1.73;0.70;;;;;;;;;;5075651;28;20408;-76
2022/08/07 12:29:03;;;;;;;0.93;0.70;;;;;;;;;;5062030;28;20425;-77
2022/08/07 12:31:29;;;;;;;1.90;0.70;;;;;;;;;;5075288;28;20560;-77
2022/08/07 12:33:56;;;;;;;2.30;0.77;;;;;;;;;;5075602;28;20396;-76
2022/08/07 12:36:22;;;;;;;1.27;0.60;;;;;;;;;;5069239;28;20420;-78
2022/08/07 12:38:49;;;;;;;2.13;0.80;;;;;;;;;;5068847;28;20518;-76
2022/08/07 12:41:15;;;;;;;1.47;0.53;;;;;;;;;;5066665;28;20439;-77
2022/08/07 12:43:43;;;;;;;1.10;0.70;;;;;;;;;;5075355;28;20539;-77
2022/08/07 12:46:19;;;;;;;1.60;0.73;;;;;;;;;;5074171;28;20455;-76
2022/08/07 12:48:51;;;;;;;1.23;0.80;;;;;;;;;;5075208;28;20469;-76
2022/08/07 12:51:24;;;;;;;1.90;0.73;;;;;;;;;;5074902;28;20436;-76
2022/08/07 12:54:09;;;;;;;2.57;0.70;;;;;;;;;;5075409;28;20408;-77
2022/08/07 12:56:41;;;;;;;1.17;0.60;;;;;;;;;;5075053;28;20411;-78
2022/08/07 12:59:08;;;;;;;4.20;0.63;;;;;;;;;;5075452;28;20419;-77
2022/08/07 13:01:49;;;;;;;1.40;0.77;;;;;;;;;;5074860;28;20423;-77
2022/08/07 13:04:18;;;;;;;3.50;0.70;;;;;;;;;;5075064;28;20434;-77
2022/08/07 13:06:59;;;;;;;1.27;0.80;;;;;;;;;;5073551;28;20446;-77
2022/08/07 13:09:44;;;;;;;2.30;0.80;;;;;;;;;;5074725;28;20562;-78
2022/08/07 13:12:16;;;;;;;2.27;0.90;;;;;;;;;;5073977;28;20447;-77
2022/08/07 13:14:53;;;;;;;0.90;0.70;;;;;;;;;;5074437;28;20494;-77
2022/08/07 13:17:39;;;;;;;1.00;0.80;;;;;;;;;;5075009;28;20492;-76
2022/08/07 13:20:09;;;;;;;1.10;0.90;;;;;;;;;;5042611;28;20532;-76
2022/08/07 13:22:39;;;;;;;1.27;0.80;;;;;;;;;;5053219;28;20948;-77
2022/08/07 13:25:05;;;;;;;1.07;0.83;;;;;;;;;;5054476;28;20416;-76
2022/08/07 13:27:48;;;;;;;1.10;0.70;;;;;;;;;;5054665;28;20408;-76
2022/08/07 13:30:14;;;;;;;1.30;0.60;;;;;;;;;;5055397;28;20507;-77
2022/08/07 13:32:44;;;;;;;2.63;0.60;;;;;;;;;;5074375;28;20787;-77
2022/08/07 13:35:27;;;;;;;3.93;0.70;;;;;;;;;;5074375;28;20415;-77
2022/08/07 13:38:02;;;;;;;1.23;0.80;;;;;;;;;;5074197;28;20399;-77
2022/08/07 13:40:29;;;;;;;1.30;0.60;;;;;;;;;;5073473;28;20477;-76
2022/08/07 13:43:06;;;;;;;2.00;1.03;;;;;;;;;;5064937;28;20465;-77
2022/08/07 13:45:33;;;;;;;1.47;0.80;;;;;;;;;;5063723;28;20409;-76
2022/08/07 13:48:00;;;;;;;2.43;0.90;;;;;;;;;;5062492;28;20408;-77
2022/08/07 13:50:26;;;;;;;1.53;0.93;;;;;;;;;;5063398;28;20423;-77
2022/08/07 13:52:55;;;;;;;1.53;0.70;;;;;;;;;;5063581;28;20440;-77
2022/08/07 13:55:21;;;;;;;1.60;0.80;;;;;;;;;;5062350;28;20461;-77
2022/08/07 14:00:53;;;;;;;2.80;0.90;;;;;;;;;;5062548;28;20427;-77
2022/08/07 14:03:21;;;;;;;1.83;0.70;;;;;;;;;;5062713;28;20465;-77
2022/08/07 14:05:49;;;;;;;1.33;0.70;;;;;;;;;;5064645;28;20447;-76
2022/08/07 14:08:16;;;;;;;1.00;0.60;;;;;;;;;;5063829;28;20397;-77
2022/08/07 14:10:43;;;;;;;0.90;0.70;;;;;;;;;;5064340;28;20496;-77
2022/08/07 14:13:12;;;;;;;2.80;0.83;;;;;;;;;;5073508;28;20416;-77
2022/08/07 14:15:39;;;;;;;0.80;0.60;;;;;;;;;;5073450;28;20419;-77
2022/08/07 14:18:15;;;;;;;1.53;1.10;;;;;;;;;;5073477;28;20775;-78
2022/08/07 14:20:44;;;;;;;0.83;0.70;;;;;;;;;;5071788;28;20431;-76
2022/08/07 14:23:23;;;;;;;1.83;0.80;;;;;;;;;;5072886;28;20478;-77
2022/08/07 14:25:55;;;;;;;0.90;0.60;;;;;;;;;;5053467;28;20461;-77
2022/08/07 14:28:21;;;;;;;1.80;0.63;;;;;;;;;;5060295;28;20404;-77
2022/08/07 14:30:48;;;;;;;1.93;0.80;;;;;;;;;;5072130;28;20561;-77
2022/08/07 14:33:16;;;;;;;0.70;0.50;;;;;;;;;;5073296;28;20430;-77
2022/08/07 14:35:42;;;;;;;2.23;0.70;;;;;;;;;;5073164;28;20412;-77
2022/08/07 14:38:09;;;;;;;1.93;0.60;;;;;;;;;;5073289;28;20408;-77
2022/08/07 14:40:35;;;;;;;0.80;0.70;;;;;;;;;;5066991;28;20439;-77
2022/08/07 14:43:09;;;;;;;1.83;0.70;;;;;;;;;;5073019;28;20439;-77
2022/08/07 14:45:48;;;;;;;1.10;0.73;;;;;;;;;;5073050;28;20830;-78
2022/08/07 14:48:17;;;;;;;0.97;0.60;;;;;;;;;;5056876;28;20760;-76
2022/08/07 14:50:48;;;;;;;1.47;0.80;;;;;;;;;;5052549;28;20424;-76
2022/08/07 14:53:14;;;;;;;1.63;0.80;;;;;;;;;;5052985;28;20776;-77
2022/08/07 14:55:43;;;;;;;1.30;0.83;;;;;;;;;;5057951;28;20432;-80
2022/08/07 14:58:10;;;;;;;1.73;0.70;;;;;;;;;;5062214;28;20426;-78
2022/08/07 15:00:37;;;;;;;1.00;0.70;;;;;;;;;;5068096;28;20942;-76
2022/08/07 15:03:04;;;;;;;0.77;0.63;;;;;;;;;;5056981;28;20468;-76
2022/08/07 15:05:30;;;;;;;1.40;0.70;;;;;;;;;;5053043;28;20777;-77
2022/08/07 15:07:57;;;;;;;0.70;0.60;;;;;;;;;;5053007;28;20405;-77